Latest Weather Observations for Sydney Olympic Park

IDN60801

Issued at 1:32 pm EDT Monday 23 October 2017 (issued every 30 minutes, with the page automatically refreshed every 10 minutes)

About weather observations | Map of weather stations | Latest weather observations for NSW | Other Formats
Station Details ID: 066212 Name: SYDNEY OLYMPIC PARK AWS (ARCHERY CENTRE) Lat: -33.83 Lon: 151.07 Height: 4.0 m
Data from the previous 72 hours. | See also: Recent months at Sydney Olympic Park
Date/Time
EDT
Temp
°C
App
Temp
°C
Dew
Point
°C
Rel
Hum
%
Delta-T
°C
Wind Press
QNH
hPa
Press
MSL
hPa
Rain since
9am
mm
Dir  Spd
km/h
Gust
km/h
Spd
kts
Gust
kts
23/01:30pm 20.6 18.0 10.7 53 5.4 SSE 15 24 8 13 - - 0.0
23/01:00pm 20.8 18.5 10.6 52 5.6 ESE 13 24 7 13 - - 0.0
23/12:30pm 20.4 18.3 9.6 50 5.8 SSE 11 19 6 10 - - 0.0
23/12:00pm 19.7 16.6 8.7 49 5.7 SE 15 20 8 11 - - 0.0
23/11:30am 19.7 18.3 9.6 52 5.4 SE 7 17 4 9 - - 0.0
23/11:00am 19.3 17.4 8.9 51 5.4 SSW 9 17 5 9 - - 0.0
23/10:30am 19.9 18.1 10.9 56 4.9 S 11 19 6 10 - - 0.0
23/10:00am 18.0 16.6 10.9 63 3.8 SSE 9 20 5 11 - - 0.0
23/09:30am 17.9 16.7 11.7 67 3.4 S 9 15 5 8 - - 0.0
23/09:00am 17.3 16.5 10.9 66 3.4 SSW 6 13 3 7 - - 3.8
23/08:30am 16.4 15.6 11.1 71 2.8 W 6 9 3 5 - - 3.8
23/08:00am 14.8 13.9 10.8 77 2.1 WSW 6 11 3 6 - - 3.8
23/07:30am 13.4 13.1 11.6 89 1.0 W 4 9 2 5 - - 3.8
23/07:00am 12.2 12.4 11.9 98 0.2 WNW 2 6 1 3 - - 3.8
23/06:30am 11.2 11.5 11.0 99 0.1 CALM 0 0 0 0 - - 3.8
23/06:00am 11.1 11.4 10.9 99 0.1 CALM 0 6 0 3 - - 3.8
23/05:30am 11.4 11.4 11.2 99 0.1 NW 2 9 1 5 - - 3.8
23/05:00am 11.7 12.2 11.5 99 0.1 CALM 0 0 0 0 - - 3.8
23/04:49am 11.8 12.3 11.5 98 0.2 CALM 0 0 0 0 - - 3.8
23/04:30am 12.2 12.8 12.0 99 0.1 CALM 0 0 0 0 - - 3.8
23/04:23am 12.1 12.7 11.9 99 0.1 CALM 0 0 0 0 - - 3.8
23/04:00am 12.1 11.6 11.9 99 0.1 NW 6 9 3 5 - - 3.8
23/03:30am 12.5 13.2 12.2 98 0.2 CALM 0 6 0 3 - - 3.8
23/03:00am 13.2 13.6 12.4 95 0.4 W 2 6 1 3 - - 3.8
23/02:30am 13.7 13.9 12.9 95 0.4 W 4 9 2 5 - - 3.8
23/02:00am 13.8 14.0 13.0 95 0.4 NW 4 7 2 4 - - 3.8
23/01:30am 14.5 14.1 12.9 90 0.9 WSW 7 13 4 7 - - 3.8
23/01:00am 14.6 14.6 13.5 93 0.6 WSW 6 11 3 6 - - 3.8
23/12:30am 14.6 16.0 14.4 99 0.1 CALM 0 0 0 0 - - 3.8
23/12:00am 14.7 16.1 14.4 98 0.2 CALM 0 6 0 3 - - 3.8
 
Date/Time
EDT
Temp
°C
App
Temp
°C
Dew
Point
°C
Rel
Hum
%
Delta-T
°C
Wind Press
QNH
hPa
Press
MSL
hPa
Rain since
9am
mm
Dir  Spd
km/h
Gust
km/h
Spd
kts
Gust
kts
22/11:30pm 14.7 16.1 14.5 99 0.1 CALM 0 0 0 0 - - 3.8
22/11:00pm 14.7 16.1 14.5 99 0.1 CALM 0 0 0 0 - - 3.8
22/10:30pm 14.8 16.2 14.5 98 0.2 CALM 0 0 0 0 - - 3.8
22/10:00pm 15.0 16.6 14.8 99 0.1 CALM 0 0 0 0 - - 3.6
22/09:30pm 14.9 16.4 14.6 98 0.2 CALM 0 2 0 1 - - 3.6
22/09:17pm 14.8 15.8 14.3 97 0.3 WNW 2 7 1 4 - - 3.6
22/09:00pm 14.9 14.4 13.9 94 0.6 ESE 9 15 5 8 - - 3.6
22/08:36pm 15.2 14.5 14.2 94 0.6 SE 11 15 6 8 - - 2.6
22/08:30pm 15.3 15.3 14.2 93 0.6 SSE 7 15 4 8 - - 2.4
22/08:00pm 15.9 15.1 13.0 83 1.6 SE 9 15 5 8 - - 1.8
22/07:30pm 16.4 15.5 12.6 78 2.1 SE 9 15 5 8 - - 1.8
22/07:00pm 16.7 15.0 12.3 75 2.4 ESE 13 19 7 10 - - 1.8
22/06:30pm 17.0 15.6 12.3 74 2.6 SE 11 15 6 8 - - 1.8
22/06:00pm 17.5 16.4 12.0 70 3.0 ESE 9 15 5 8 - - 1.8
22/05:30pm 17.5 16.6 12.6 73 2.7 E 9 15 5 8 - - 1.8
22/05:00pm 17.0 14.9 12.5 75 2.5 E 15 22 8 12 - - 1.8
22/04:30pm 16.6 14.2 12.6 77 2.2 E 17 24 9 13 - - 1.8
22/04:00pm 16.0 14.3 13.7 86 1.3 SE 15 24 8 13 - - 1.8
22/03:30pm 16.8 16.4 14.1 84 1.5 SE 9 19 5 10 - - 1.8
22/03:07pm 16.2 14.3 13.1 82 1.7 ESE 15 20 8 11 - - 1.8
22/03:00pm 16.0 14.1 13.1 83 1.6 ESE 15 20 8 11 - - 1.8
22/02:30pm 18.3 15.0 10.9 62 4.0 E 19 26 10 14 - - 0.0
22/02:29pm 18.4 15.1 10.8 61 4.1 E 19 26 10 14 - - 0.0
22/02:00pm 19.0 15.1 10.8 59 4.4 ESE 22 30 12 16 - - 0.0
22/01:30pm 21.4 18.3 11.7 54 5.4 E 19 28 10 15 - - 0.0
22/01:00pm 21.9 20.5 12.2 54 5.5 E 11 19 6 10 - - 0.0
22/12:30pm 20.8 18.4 8.8 46 6.3 ESE 11 20 6 11 - - 0.0
22/12:00pm 20.7 19.1 10.2 51 5.7 ESE 9 13 5 7 - - 0.0
22/11:30am 19.6 18.8 9.5 52 5.4 E 4 9 2 5 - - 0.0
22/11:00am 19.0 17.9 9.8 55 4.9 SE 6 9 3 5 - - 0.0
22/10:30am 19.1 18.4 10.1 56 4.8 W 4 13 2 7 - - 0.0
22/10:00am 19.0 18.0 10.3 57 4.7 W 6 13 3 7 - - 0.0
22/09:30am 18.4 18.3 12.2 67 3.4 W 4 13 2 7 - - 0.0
22/09:00am 17.1 16.1 10.9 67 3.3 WNW 7 11 4 6 - - 0.0
22/08:30am 15.6 15.1 12.0 79 2.0 NW 6 9 3 5 - - 0.0
22/08:00am 14.6 13.4 11.7 83 1.6 NW 9 11 5 6 - - 0.0
22/07:30am 12.9 13.1 11.8 93 0.6 WNW 2 7 1 4 - - 0.0
22/07:00am 12.5 12.3 11.9 96 0.3 WNW 4 9 2 5 - - 0.0
22/06:30am 11.9 11.7 11.7 99 0.1 WNW 4 7 2 4 - - 0.0
22/06:00am 11.3 11.6 11.0 98 0.2 CALM 0 6 0 3 - - 0.0
22/05:30am 11.8 12.2 11.2 96 0.3 CALM 0 0 0 0 - - 0.0
22/05:00am 12.1 12.7 11.9 99 0.1 CALM 0 0 0 0 - - 0.0
22/04:30am 11.9 12.3 11.4 97 0.3 CALM 0 0 0 0 - - 0.0
22/04:00am 11.9 12.4 11.7 99 0.1 CALM 0 0 0 0 - - 0.0
22/03:30am 11.6 12.0 11.4 99 0.1 CALM 0 0 0 0 - - 0.0
22/03:00am 11.2 11.5 11.0 99 0.1 CALM 0 0 0 0 - - 0.0
22/02:30am 11.3 11.6 10.8 97 0.3 CALM 0 0 0 0 - - 0.0
22/02:00am 11.3 11.6 10.8 97 0.3 CALM 0 0 0 0 - - 0.0
22/01:30am 11.8 12.2 11.3 97 0.3 CALM 0 0 0 0 - - 0.0
22/01:00am 12.1 12.6 11.5 96 0.3 CALM 0 0 0 0 - - 0.0
22/12:30am 12.3 12.8 11.7 96 0.3 CALM 0 0 0 0 - - 0.0
22/12:00am 12.4 12.9 11.6 95 0.4 CALM 0 0 0 0 - - 0.0
 
Date/Time
EDT
Temp
°C
App
Temp
°C
Dew
Point
°C
Rel
Hum
%
Delta-T
°C
Wind Press
QNH
hPa
Press
MSL
hPa
Rain since
9am
mm
Dir  Spd
km/h
Gust
km/h
Spd
kts
Gust
kts
21/11:30pm 12.7 13.1 11.4 92 0.7 CALM 0 0 0 0 - - 0.0
21/11:00pm 13.3 13.9 12.0 92 0.7 CALM 0 0 0 0 - - 0.0
21/10:30pm 13.6 14.2 12.0 90 0.9 CALM 0 0 0 0 - - 0.0
21/10:00pm 13.2 13.6 11.4 89 1.0 CALM 0 0 0 0 - - 0.0
21/09:30pm 13.2 13.6 11.3 88 1.0 CALM 0 0 0 0 - - 0.0
21/09:00pm 13.4 13.6 10.4 82 1.6 CALM 0 0 0 0 - - 0.0
21/08:30pm 14.6 13.9 10.2 75 2.3 ESE 4 9 2 5 - - 0.0
21/08:00pm 15.2 13.5 9.8 70 2.8 SE 9 15 5 8 - - 0.0
21/07:30pm 15.9 13.8 9.8 67 3.2 ESE 11 17 6 9 - - 0.0
21/07:00pm 16.1 13.7 10.0 67 3.2 SE 13 20 7 11 - - 0.0
21/06:30pm 16.7 13.7 9.4 62 3.8 ESE 15 19 8 10 - - 0.0
21/06:00pm 17.4 14.5 9.6 60 4.1 ESE 15 24 8 13 - - 0.0
21/05:30pm 17.3 13.9 9.2 59 4.2 SE 17 20 9 11 - - 0.0
21/05:00pm 17.6 14.3 9.5 59 4.2 SE 17 26 9 14 - - 0.0
21/04:30pm 18.2 14.8 9.3 56 4.7 SE 17 24 9 13 - - 0.0
21/04:00pm 18.0 14.0 9.1 56 4.6 SE 20 26 11 14 - - 0.0
21/03:30pm 18.0 13.9 8.8 55 4.8 SE 20 30 11 16 - - 0.0
21/03:00pm 18.8 15.4 10.4 58 4.5 SE 19 32 10 17 - - 0.0
21/02:30pm 18.7 15.5 10.0 57 4.6 SSE 17 26 9 14 - - 0.0
21/02:00pm 18.6 14.9 9.4 55 4.8 SSE 19 30 10 16 - - 0.0
21/01:30pm 19.0 15.6 10.6 58 4.5 SSE 19 28 10 15 - - 0.0
21/01:28pm 18.4 14.6 9.2 55 4.8 SSE 19 28 10 15 - - 0.0
21/01:08pm 18.7 15.1 10.5 59 4.4 S 20 32 11 17 - - 0.0
21/01:00pm 18.7 15.5 10.0 57 4.6 SSE 17 28 9 15 - - 0.0
21/12:30pm 18.7 15.3 10.5 59 4.4 SSE 19 32 10 17 - - 0.0
21/12:00pm 18.0 14.5 8.8 55 4.8 S 17 30 9 16 - - 0.0
21/11:30am 18.9 15.6 9.4 54 5.0 S 17 28 9 15 - - 0.0
21/11:00am 18.5 14.6 9.3 55 4.8 SSE 20 33 11 18 - - 0.0
21/10:30am 17.0 13.8 8.4 57 4.4 SSE 15 22 8 12 - - 0.0
21/10:00am 17.2 13.7 8.6 57 4.4 SSE 17 30 9 16 - - 0.0
21/09:30am 16.4 13.5 8.1 58 4.2 S 13 20 7 11 - - 0.0
21/09:00am 16.3 13.8 8.0 58 4.2 SW 11 19 6 10 - - 20.4
21/08:30am 15.4 13.2 7.7 60 3.8 SSW 9 20 5 11 - - 20.4
21/08:03am 14.6 11.4 6.7 59 3.8 SW 13 20 7 11 - - 20.4
21/08:00am 14.6 11.4 6.9 60 3.8 WSW 13 20 7 11 - - 20.4
21/07:43am 13.8 10.9 6.4 61 3.5 WSW 11 20 6 11 - - 20.4
21/07:30am 13.7 10.4 6.6 62 3.4 WSW 13 20 7 11 - - 20.4
21/07:00am 13.6 10.7 6.7 63 3.3 SW 11 20 6 11 - - 20.4
21/06:30am 13.3 10.5 6.9 65 3.1 SW 11 19 6 10 - - 20.4
21/06:00am 13.3 10.8 6.6 64 3.2 WSW 9 13 5 7 - - 20.4
21/05:30am 13.5 10.7 6.8 64 3.2 WSW 11 17 6 9 - - 20.4
21/05:00am 13.6 11.2 6.9 64 3.2 SW 9 17 5 9 - - 20.4
21/04:30am 14.4 12.0 7.2 62 3.5 SW 9 17 5 9 - - 20.4
21/04:00am 14.9 12.2 7.2 60 3.8 SSW 11 19 6 10 - - 20.4
21/03:30am 15.1 12.4 7.2 59 3.9 SSW 11 19 6 10 - - 20.4
21/03:00am 15.2 12.6 7.7 61 3.7 S 11 24 6 13 - - 20.4
21/02:30am 15.2 12.9 7.5 60 3.8 SSW 9 15 5 8 - - 20.4
21/02:00am 15.5 12.8 7.3 58 4.1 S 11 22 6 12 - - 20.4
21/01:30am 15.6 13.0 7.9 60 3.9 S 11 19 6 10 - - 20.4
21/01:00am 15.8 13.1 7.3 57 4.2 S 11 22 6 12 - - 20.4
21/12:30am 15.9 12.7 8.4 61 3.8 S 15 24 8 13 - - 20.4
21/12:00am 16.0 13.8 9.2 64 3.5 S 11 28 6 15 - - 20.2
 
Date/Time
EDT
Temp
°C
App
Temp
°C
Dew
Point
°C
Rel
Hum
%
Delta-T
°C
Wind Press
QNH
hPa
Press
MSL
hPa
Rain since
9am
mm
Dir  Spd
km/h
Gust
km/h
Spd
kts
Gust
kts
20/11:30pm 15.9 14.1 9.3 65 3.4 S 9 15 5 8 - - 20.2
20/11:00pm 15.8 13.7 8.3 61 3.8 SSW 9 13 5 7 - - 20.2
20/10:30pm 16.0 13.4 7.7 58 4.2 S 11 17 6 9 - - 20.2
20/10:00pm 16.0 12.9 8.7 62 3.7 S 15 22 8 12 - - 20.2
20/09:30pm 15.4 13.5 10.4 72 2.6 S 11 19 6 10 - - 20.2
20/09:00pm 15.0 14.2 11.6 80 1.8 S 7 17 4 9 - - 20.2
20/08:30pm 15.1 14.0 11.9 81 1.7 S 9 17 5 9 - - 20.2
20/08:00pm 14.9 13.7 12.9 88 1.1 S 11 24 6 13 - - 20.2
20/07:33pm 14.7 13.2 14.1 96 0.3 S 15 24 8 13 - - 20.2
20/07:30pm 14.6 12.7 14.1 97 0.3 S 17 24 9 13 - - 20.2
20/07:00pm 14.6 13.5 14.4 99 0.1 SSE 13 22 7 12 - - 20.0
20/06:30pm 14.8 14.6 14.6 99 0.1 S 9 15 5 8 - - 18.6
20/06:28pm 14.7 14.4 14.5 99 0.1 SSW 9 15 5 8 - - 18.6
20/06:00pm 14.8 14.6 14.6 99 0.1 S 9 13 5 7 - - 18.2
20/05:51pm 14.8 14.2 14.6 99 0.1 SSE 11 20 6 11 - - 18.0
20/05:30pm 14.9 14.3 14.7 99 0.1 SSW 11 20 6 11 - - 17.8
20/05:19pm 15.0 14.8 14.8 99 0.1 S 9 17 5 9 - - 17.4
20/05:12pm 15.0 14.8 14.8 99 0.1 S 9 17 5 9 - - 17.4
20/05:00pm 14.9 14.3 14.7 99 0.1 S 11 20 6 11 - - 17.2
20/04:57pm 14.9 14.7 14.7 99 0.1 SSW 9 20 5 11 - - 17.2
20/04:43pm 14.7 14.4 14.5 99 0.1 SSE 9 15 5 8 - - 17.0
20/04:30pm 14.5 13.7 14.0 97 0.3 SSE 11 19 6 10 - - 16.8
20/04:00pm 14.8 13.7 14.3 97 0.3 SSE 13 22 7 12 - - 15.8
20/03:30pm 14.7 13.3 14.4 98 0.2 S 15 26 8 14 - - 15.4
20/03:00pm 14.6 13.5 14.4 99 0.1 SSE 13 20 7 11 - - 12.8
20/02:30pm 15.0 13.7 14.7 98 0.2 S 15 24 8 13 - - 9.6
20/02:05pm 15.2 13.7 14.2 94 0.6 SSE 15 28 8 15 - - 7.6
20/02:00pm 15.4 13.5 14.1 92 0.7 SSE 17 35 9 19 - - 7.2

Other Formats:

Comma delimited format used in spreadsheet applications
http://www.bom.gov.au/fwo/IDN60801/IDN60801.95765.axf

JavaScript Object Notation format (JSON) in row-major order
http://www.bom.gov.au/fwo/IDN60801/IDN60801.95765.json